sensor_id;sensor_type;location;lat;lon;timestamp;pressure;altitude;pressure_sealevel;temperature;humidity
15670;BME280;18524;45.190;5.732;2024-01-16T00:02:59;98630.41;;;7.25;100.00
15670;BME280;18524;45.190;5.732;2024-01-16T00:07:50;98641.31;;;7.19;100.00
15670;BME280;18524;45.190;5.732;2024-01-16T00:12:41;98643.44;;;7.14;100.00
15670;BME280;18524;45.190;5.732;2024-01-16T00:17:31;98633.34;;;7.09;100.00
15670;BME280;18524;45.190;5.732;2024-01-16T00:22:22;98637.84;;;7.07;100.00
15670;BME280;18524;45.190;5.732;2024-01-16T00:27:12;98627.25;;;6.98;100.00
15670;BME280;18524;45.190;5.732;2024-01-16T00:32:03;98624.91;;;7.06;100.00
15670;BME280;18524;45.190;5.732;2024-01-16T00:36:53;98622.53;;;7.03;100.00
15670;BME280;18524;45.190;5.732;2024-01-16T00:41:44;98629.91;;;6.74;100.00
15670;BME280;18524;45.190;5.732;2024-01-16T00:46:34;98622.69;;;6.77;100.00
15670;BME280;18524;45.190;5.732;2024-01-16T00:51:24;98626.13;;;6.78;100.00
15670;BME280;18524;45.190;5.732;2024-01-16T00:56:15;98627.94;;;6.88;100.00
15670;BME280;18524;45.190;5.732;2024-01-16T01:01:06;98630.06;;;6.83;100.00
15670;BME280;18524;45.190;5.732;2024-01-16T01:05:56;98634.44;;;6.83;100.00
15670;BME280;18524;45.190;5.732;2024-01-16T01:10:47;98642.94;;;6.74;100.00
15670;BME280;18524;45.190;5.732;2024-01-16T01:15:37;98641.88;;;6.76;100.00
15670;BME280;18524;45.190;5.732;2024-01-16T01:20:28;98651.59;;;6.74;100.00
15670;BME280;18524;45.190;5.732;2024-01-16T01:25:18;98650.97;;;6.71;100.00
15670;BME280;18524;45.190;5.732;2024-01-16T01:30:09;98647.22;;;6.75;100.00
15670;BME280;18524;45.190;5.732;2024-01-16T01:35:03;98645.78;;;6.71;100.00
15670;BME280;18524;45.190;5.732;2024-01-16T01:39:54;98654.09;;;6.76;100.00
15670;BME280;18524;45.190;5.732;2024-01-16T01:44:44;98662.03;;;6.62;100.00
15670;BME280;18524;45.190;5.732;2024-01-16T01:49:35;98660.66;;;6.45;100.00
15670;BME280;18524;45.190;5.732;2024-01-16T01:54:26;98655.13;;;6.49;100.00
15670;BME280;18524;45.190;5.732;2024-01-16T01:59:18;98667.66;;;6.44;100.00
15670;BME280;18524;45.190;5.732;2024-01-16T02:04:10;98666.91;;;6.42;100.00
15670;BME280;18524;45.190;5.732;2024-01-16T02:09:01;98663.41;;;6.31;100.00
15670;BME280;18524;45.190;5.732;2024-01-16T02:13:52;98670.97;;;6.46;100.00
15670;BME280;18524;45.190;5.732;2024-01-16T02:18:42;98682.22;;;6.47;100.00
15670;BME280;18524;45.190;5.732;2024-01-16T02:23:33;98676.47;;;6.54;100.00
15670;BME280;18524;45.190;5.732;2024-01-16T02:28:23;98679.34;;;6.63;100.00
15670;BME280;18524;45.190;5.732;2024-01-16T02:33:14;98688.53;;;6.55;100.00
15670;BME280;18524;45.190;5.732;2024-01-16T02:38:04;98675.44;;;6.68;100.00
15670;BME280;18524;45.190;5.732;2024-01-16T02:42:55;98674.22;;;6.74;100.00
15670;BME280;18524;45.190;5.732;2024-01-16T02:47:45;98665.59;;;6.61;100.00
15670;BME280;18524;45.190;5.732;2024-01-16T02:52:35;98658.88;;;6.45;100.00
15670;BME280;18524;45.190;5.732;2024-01-16T02:57:26;98661.09;;;6.39;100.00
15670;BME280;18524;45.190;5.732;2024-01-16T03:02:16;98659.31;;;6.39;100.00
15670;BME280;18524;45.190;5.732;2024-01-16T03:07:07;98662.78;;;6.27;100.00
15670;BME280;18524;45.190;5.732;2024-01-16T03:11:57;98662.06;;;6.25;100.00
15670;BME280;18524;45.190;5.732;2024-01-16T03:16:50;98661.78;;;6.17;100.00
15670;BME280;18524;45.190;5.732;2024-01-16T03:21:41;98667.25;;;6.25;100.00
15670;BME280;18524;45.190;5.732;2024-01-16T03:26:31;98661.66;;;6.18;100.00
15670;BME280;18524;45.190;5.732;2024-01-16T03:31:22;98659.22;;;6.28;100.00
15670;BME280;18524;45.190;5.732;2024-01-16T03:36:13;98658.66;;;6.12;100.00
15670;BME280;18524;45.190;5.732;2024-01-16T03:41:04;98660.16;;;6.40;100.00
15670;BME280;18524;45.190;5.732;2024-01-16T03:45:57;98659.66;;;6.35;100.00
15670;BME280;18524;45.190;5.732;2024-01-16T03:50:47;98652.91;;;6.56;100.00
15670;BME280;18524;45.190;5.732;2024-01-16T03:55:38;98651.28;;;6.66;100.00
15670;BME280;18524;45.190;5.732;2024-01-16T04:00:28;98647.03;;;6.65;100.00
15670;BME280;18524;45.190;5.732;2024-01-16T04:05:18;98631.31;;;6.30;100.00
15670;BME280;18524;45.190;5.732;2024-01-16T04:10:09;98628.41;;;6.35;100.00
15670;BME280;18524;45.190;5.732;2024-01-16T04:14:59;98620.91;;;6.30;100.00
15670;BME280;18524;45.190;5.732;2024-01-16T04:19:49;98624.97;;;5.98;100.00
15670;BME280;18524;45.190;5.732;2024-01-16T04:24:40;98617.75;;;5.88;100.00
15670;BME280;18524;45.190;5.732;2024-01-16T04:29:30;98611.41;;;5.92;100.00
15670;BME280;18524;45.190;5.732;2024-01-16T04:34:21;98607.25;;;5.90;100.00
15670;BME280;18524;45.190;5.732;2024-01-16T04:39:11;98595.50;;;5.84;100.00
15670;BME280;18524;45.190;5.732;2024-01-16T04:44:02;98592.66;;;5.87;100.00
15670;BME280;18524;45.190;5.732;2024-01-16T04:48:53;98596.03;;;5.77;100.00
15670;BME280;18524;45.190;5.732;2024-01-16T04:53:43;98597.69;;;5.78;100.00
15670;BME280;18524;45.190;5.732;2024-01-16T04:58:33;98591.72;;;5.88;100.00
15670;BME280;18524;45.190;5.732;2024-01-16T05:03:24;98593.53;;;5.75;100.00
15670;BME280;18524;45.190;5.732;2024-01-16T05:08:14;98590.84;;;5.64;100.00
15670;BME280;18524;45.190;5.732;2024-01-16T05:13:04;98589.81;;;5.54;100.00
15670;BME280;18524;45.190;5.732;2024-01-16T05:17:55;98588.25;;;5.51;100.00
15670;BME280;18524;45.190;5.732;2024-01-16T05:22:45;98589.63;;;5.44;100.00
15670;BME280;18524;45.190;5.732;2024-01-16T05:27:35;98581.09;;;5.42;100.00
15670;BME280;18524;45.190;5.732;2024-01-16T05:32:26;98586.47;;;5.52;100.00
15670;BME280;18524;45.190;5.732;2024-01-16T05:37:17;98582.31;;;5.49;100.00
15670;BME280;18524;45.190;5.732;2024-01-16T05:42:08;98577.84;;;5.64;100.00
15670;BME280;18524;45.190;5.732;2024-01-16T05:46:58;98585.88;;;5.61;100.00
15670;BME280;18524;45.190;5.732;2024-01-16T05:51:48;98575.25;;;5.64;100.00
15670;BME280;18524;45.190;5.732;2024-01-16T05:56:39;98569.22;;;5.63;100.00
15670;BME280;18524;45.190;5.732;2024-01-16T06:01:29;98578.25;;;5.71;100.00
15670;BME280;18524;45.190;5.732;2024-01-16T06:06:20;98577.03;;;5.51;100.00
15670;BME280;18524;45.190;5.732;2024-01-16T06:11:10;98579.63;;;5.63;100.00
15670;BME280;18524;45.190;5.732;2024-01-16T06:16:01;98587.94;;;5.56;100.00
15670;BME280;18524;45.190;5.732;2024-01-16T06:20:51;98583.38;;;5.47;100.00
15670;BME280;18524;45.190;5.732;2024-01-16T06:25:41;98579.63;;;5.51;100.00
15670;BME280;18524;45.190;5.732;2024-01-16T06:30:32;98574.75;;;5.59;100.00
15670;BME280;18524;45.190;5.732;2024-01-16T06:35:22;98581.91;;;5.68;100.00
15670;BME280;18524;45.190;5.732;2024-01-16T06:40:13;98576.88;;;5.78;100.00
15670;BME280;18524;45.190;5.732;2024-01-16T06:45:04;98579.63;;;5.63;100.00
15670;BME280;18524;45.190;5.732;2024-01-16T06:49:55;98584.94;;;5.62;100.00
15670;BME280;18524;45.190;5.732;2024-01-16T06:54:45;98585.22;;;5.70;100.00
15670;BME280;18524;45.190;5.732;2024-01-16T06:59:36;98580.31;;;5.78;100.00
15670;BME280;18524;45.190;5.732;2024-01-16T07:04:26;98583.66;;;5.68;100.00
15670;BME280;18524;45.190;5.732;2024-01-16T07:09:16;98585.22;;;5.70;100.00
15670;BME280;18524;45.190;5.732;2024-01-16T07:14:10;98586.69;;;5.49;100.00
15670;BME280;18524;45.190;5.732;2024-01-16T07:19:01;98593.34;;;5.53;100.00
15670;BME280;18524;45.190;5.732;2024-01-16T07:23:52;98582.94;;;5.53;100.00
15670;BME280;18524;45.190;5.732;2024-01-16T07:28:42;98594.19;;;5.66;100.00
15670;BME280;18524;45.190;5.732;2024-01-16T07:33:33;98590.44;;;5.70;100.00
15670;BME280;18524;45.190;5.732;2024-01-16T07:38:24;98594.19;;;5.53;100.00
15670;BME280;18524;45.190;5.732;2024-01-16T07:43:14;98597.00;;;5.63;100.00
15670;BME280;18524;45.190;5.732;2024-01-16T07:48:05;98591.25;;;5.71;100.00
15670;BME280;18524;45.190;5.732;2024-01-16T07:52:55;98590.84;;;5.64;100.00
15670;BME280;18524;45.190;5.732;2024-01-16T07:57:45;98605.00;;;5.60;100.00
15670;BME280;18524;45.190;5.732;2024-01-16T08:02:36;98603.75;;;5.65;100.00
15670;BME280;18524;45.190;5.732;2024-01-16T08:07:27;98605.69;;;5.87;100.00
15670;BME280;18524;45.190;5.732;2024-01-16T08:12:17;98614.13;;;5.78;100.00
15670;BME280;18524;45.190;5.732;2024-01-16T08:17:08;98619.66;;;5.99;100.00
15670;BME280;18524;45.190;5.732;2024-01-16T08:21:58;98619.34;;;6.04;100.00
15670;BME280;18524;45.190;5.732;2024-01-16T08:26:49;98629.53;;;5.81;100.00
15670;BME280;18524;45.190;5.732;2024-01-16T08:31:40;98633.06;;;5.80;100.00
15670;BME280;18524;45.190;5.732;2024-01-16T08:36:30;98635.97;;;5.88;100.00
15670;BME280;18524;45.190;5.732;2024-01-16T08:41:21;98646.00;;;5.69;100.00
15670;BME280;18524;45.190;5.732;2024-01-16T08:46:11;98639.63;;;5.73;100.00
15670;BME280;18524;45.190;5.732;2024-01-16T08:51:07;98641.09;;;5.77;100.00
15670;BME280;18524;45.190;5.732;2024-01-16T08:55:59;98642.56;;;5.69;100.00
15670;BME280;18524;45.190;5.732;2024-01-16T09:00:49;98631.19;;;5.82;100.00
15670;BME280;18524;45.190;5.732;2024-01-16T09:05:40;98633.50;;;6.00;100.00
15670;BME280;18524;45.190;5.732;2024-01-16T09:10:30;98628.69;;;5.81;100.00
15670;BME280;18524;45.190;5.732;2024-01-16T09:15:20;98634.13;;;6.03;100.00
15670;BME280;18524;45.190;5.732;2024-01-16T09:20:11;98624.94;;;6.10;100.00
15670;BME280;18524;45.190;5.732;2024-01-16T09:25:02;98641.94;;;6.27;100.00
15670;BME280;18524;45.190;5.732;2024-01-16T09:29:52;98635.53;;;6.68;100.00
15670;BME280;18524;45.190;5.732;2024-01-16T09:34:43;98642.53;;;6.43;100.00
15670;BME280;18524;45.190;5.732;2024-01-16T09:39:33;98645.53;;;6.50;100.00
15670;BME280;18524;45.190;5.732;2024-01-16T09:44:25;98652.63;;;6.48;100.00
15670;BME280;18524;45.190;5.732;2024-01-16T09:49:15;98651.00;;;6.58;100.00
15670;BME280;18524;45.190;5.732;2024-01-16T09:54:07;98650.56;;;6.40;100.00
15670;BME280;18524;45.190;5.732;2024-01-16T09:59:04;98650.50;;;6.53;100.00
15670;BME280;18524;45.190;5.732;2024-01-16T10:03:55;98648.13;;;6.50;100.00
15670;BME280;18524;45.190;5.732;2024-01-16T10:08:46;98653.56;;;6.47;100.00
15670;BME280;18524;45.190;5.732;2024-01-16T10:13:36;98653.06;;;6.66;100.00
15670;BME280;18524;45.190;5.732;2024-01-16T10:18:28;98645.34;;;6.64;100.00
15670;BME280;18524;45.190;5.732;2024-01-16T10:23:32;98644.94;;;6.70;100.00
15670;BME280;18524;45.190;5.732;2024-01-16T10:28:27;98649.47;;;6.55;100.00
15670;BME280;18524;45.190;5.732;2024-01-16T10:33:17;98639.31;;;6.64;100.00
15670;BME280;18524;45.190;5.732;2024-01-16T10:38:07;98631.56;;;6.75;100.00
15670;BME280;18524;45.190;5.732;2024-01-16T10:42:59;98632.28;;;6.77;100.00
15670;BME280;18524;45.190;5.732;2024-01-16T10:48:06;98626.44;;;6.97;100.00
15670;BME280;18524;45.190;5.732;2024-01-16T10:52:59;98630.47;;;7.01;100.00
15670;BME280;18524;45.190;5.732;2024-01-16T10:57:50;98622.94;;;7.09;100.00
15670;BME280;18524;45.190;5.732;2024-01-16T11:02:45;98613.38;;;6.86;100.00
15670;BME280;18524;45.190;5.732;2024-01-16T11:07:41;98612.88;;;6.81;100.00
15670;BME280;18524;45.190;5.732;2024-01-16T11:12:32;98610.78;;;6.97;100.00
15670;BME280;18524;45.190;5.732;2024-01-16T11:17:23;98609.59;;;7.01;100.00
15670;BME280;18524;45.190;5.732;2024-01-16T11:22:15;98604.25;;;6.92;100.00
15670;BME280;18524;45.190;5.732;2024-01-16T11:27:06;98601.41;;;6.95;100.00
15670;BME280;18524;45.190;5.732;2024-01-16T11:31:57;98604.34;;;6.79;100.00
15670;BME280;18524;45.190;5.732;2024-01-16T11:36:52;98587.19;;;6.87;100.00
15670;BME280;18524;45.190;5.732;2024-01-16T11:41:54;98578.41;;;6.88;100.00
15670;BME280;18524;45.190;5.732;2024-01-16T11:47:00;98579.50;;;6.97;100.00
15670;BME280;18524;45.190;5.732;2024-01-16T11:51:50;98568.28;;;7.08;100.00
15670;BME280;18524;45.190;5.732;2024-01-16T11:57:01;98559.66;;;7.07;100.00
15670;BME280;18524;45.190;5.732;2024-01-16T12:01:57;98561.66;;;7.15;100.00
15670;BME280;18524;45.190;5.732;2024-01-16T12:06:58;98566.06;;;7.14;100.00
15670;BME280;18524;45.190;5.732;2024-01-16T12:12:02;98556.56;;;7.13;100.00
15670;BME280;18524;45.190;5.732;2024-01-16T12:16:53;98557.53;;;7.24;100.00
15670;BME280;18524;45.190;5.732;2024-01-16T12:21:58;98549.56;;;7.14;100.00
15670;BME280;18524;45.190;5.732;2024-01-16T12:26:48;98558.00;;;7.17;100.00
15670;BME280;18524;45.190;5.732;2024-01-16T12:31:38;98547.19;;;7.11;100.00
15670;BME280;18524;45.190;5.732;2024-01-16T12:36:29;98535.22;;;7.08;100.00
15670;BME280;18524;45.190;5.732;2024-01-16T12:41:19;98516.28;;;7.06;100.00
15670;BME280;18524;45.190;5.732;2024-01-16T12:46:11;98520.53;;;7.18;100.00
15670;BME280;18524;45.190;5.732;2024-01-16T12:51:02;98508.56;;;7.27;100.00
15670;BME280;18524;45.190;5.732;2024-01-16T12:56:00;98510.44;;;7.59;100.00
15670;BME280;18524;45.190;5.732;2024-01-16T13:00:51;98493.13;;;7.69;100.00
15670;BME280;18524;45.190;5.732;2024-01-16T13:05:42;98485.16;;;7.70;100.00
15670;BME280;18524;45.190;5.732;2024-01-16T13:10:32;98476.16;;;7.63;100.00
15670;BME280;18524;45.190;5.732;2024-01-16T13:15:23;98462.69;;;7.47;100.00
15670;BME280;18524;45.190;5.732;2024-01-16T13:20:13;98450.81;;;7.54;100.00
15670;BME280;18524;45.190;5.732;2024-01-16T13:25:04;98442.38;;;7.62;100.00
15670;BME280;18524;45.190;5.732;2024-01-16T13:29:56;98439.34;;;7.77;100.00
15670;BME280;18524;45.190;5.732;2024-01-16T13:34:47;98426.19;;;7.79;100.00
15670;BME280;18524;45.190;5.732;2024-01-16T13:39:39;98411.81;;;7.84;100.00
15670;BME280;18524;45.190;5.732;2024-01-16T13:44:30;98409.53;;;7.91;100.00
15670;BME280;18524;45.190;5.732;2024-01-16T13:49:20;98404.78;;;7.96;100.00
15670;BME280;18524;45.190;5.732;2024-01-16T13:54:11;98413.09;;;7.90;100.00
15670;BME280;18524;45.190;5.732;2024-01-16T13:59:01;98394.31;;;7.96;100.00
15670;BME280;18524;45.190;5.732;2024-01-16T14:03:51;98393.06;;;7.91;100.00
15670;BME280;18524;45.190;5.732;2024-01-16T14:08:42;98394.00;;;7.90;100.00
15670;BME280;18524;45.190;5.732;2024-01-16T14:13:32;98392.97;;;7.81;100.00
15670;BME280;18524;45.190;5.732;2024-01-16T14:18:23;98380.38;;;7.86;100.00
15670;BME280;18524;45.190;5.732;2024-01-16T14:23:13;98391.28;;;7.91;100.00
15670;BME280;18524;45.190;5.732;2024-01-16T14:28:04;98395.22;;;7.86;100.00
15670;BME280;18524;45.190;5.732;2024-01-16T14:32:54;98390.38;;;7.70;100.00
15670;BME280;18524;45.190;5.732;2024-01-16T14:37:46;98386.38;;;7.66;100.00
15670;BME280;18524;45.190;5.732;2024-01-16T14:42:36;98386.81;;;7.71;100.00
15670;BME280;18524;45.190;5.732;2024-01-16T14:47:27;98374.72;;;7.70;100.00
15670;BME280;18524;45.190;5.732;2024-01-16T14:52:18;98375.34;;;7.62;100.00
15670;BME280;18524;45.190;5.732;2024-01-16T14:57:08;98379.03;;;7.60;100.00
15670;BME280;18524;45.190;5.732;2024-01-16T15:02:00;98383.88;;;7.64;100.00
15670;BME280;18524;45.190;5.732;2024-01-16T15:06:54;98388.66;;;7.59;100.00
15670;BME280;18524;45.190;5.732;2024-01-16T15:11:45;98377.00;;;7.63;100.00
15670;BME280;18524;45.190;5.732;2024-01-16T15:16:35;98384.78;;;7.74;100.00
15670;BME280;18524;45.190;5.732;2024-01-16T15:21:26;98379.53;;;7.53;100.00
15670;BME280;18524;45.190;5.732;2024-01-16T15:26:16;98376.56;;;7.58;100.00
15670;BME280;18524;45.190;5.732;2024-01-16T15:31:10;98373.56;;;7.63;100.00
15670;BME280;18524;45.190;5.732;2024-01-16T15:36:02;98378.03;;;7.72;100.00
15670;BME280;18524;45.190;5.732;2024-01-16T15:40:53;98387.44;;;7.63;100.00
15670;BME280;18524;45.190;5.732;2024-01-16T15:45:43;98386.81;;;7.71;100.00
15670;BME280;18524;45.190;5.732;2024-01-16T15:50:33;98391.47;;;7.67;100.00
15670;BME280;18524;45.190;5.732;2024-01-16T15:55:24;98390.13;;;7.73;100.00
15670;BME280;18524;45.190;5.732;2024-01-16T16:00:15;98400.00;;;7.69;100.00
15670;BME280;18524;45.190;5.732;2024-01-16T16:05:06;98398.19;;;7.49;100.00
15670;BME280;18524;45.190;5.732;2024-01-16T16:09:57;98392.38;;;7.45;100.00
15670;BME280;18524;45.190;5.732;2024-01-16T16:14:47;98394.88;;;7.36;100.00
15670;BME280;18524;45.190;5.732;2024-01-16T16:19:40;98403.84;;;7.43;100.00
15670;BME280;18524;45.190;5.732;2024-01-16T16:24:30;98403.41;;;7.38;100.00
15670;BME280;18524;45.190;5.732;2024-01-16T16:29:22;98405.75;;;7.52;100.00
15670;BME280;18524;45.190;5.732;2024-01-16T16:34:13;98417.13;;;7.40;100.00
15670;BME280;18524;45.190;5.732;2024-01-16T16:39:07;98415.25;;;7.31;100.00
15670;BME280;18524;45.190;5.732;2024-01-16T16:43:57;98416.91;;;7.32;100.00
15670;BME280;18524;45.190;5.732;2024-01-16T16:48:52;98410.44;;;7.15;100.00
15670;BME280;18524;45.190;5.732;2024-01-16T16:53:43;98415.41;;;7.18;100.00
15670;BME280;18524;45.190;5.732;2024-01-16T16:58:39;98418.38;;;7.13;100.00
15670;BME280;18524;45.190;5.732;2024-01-16T17:03:29;98421.78;;;7.25;100.00
15670;BME280;18524;45.190;5.732;2024-01-16T17:08:24;98421.44;;;7.18;100.00
15670;BME280;18524;45.190;5.732;2024-01-16T17:13:17;98403.31;;;7.17;100.00
15670;BME280;18524;45.190;5.732;2024-01-16T17:18:14;98412.19;;;7.26;100.00
15670;BME280;18524;45.190;5.732;2024-01-16T17:23:04;98404.63;;;7.22;100.00
15670;BME280;18524;45.190;5.732;2024-01-16T17:27:54;98408.50;;;7.28;100.00
15670;BME280;18524;45.190;5.732;2024-01-16T17:32:45;98400.34;;;7.21;100.00
15670;BME280;18524;45.190;5.732;2024-01-16T17:37:35;98391.56;;;7.22;100.00
15670;BME280;18524;45.190;5.732;2024-01-16T17:42:26;98385.06;;;7.17;100.00
15670;BME280;18524;45.190;5.732;2024-01-16T17:47:16;98378.31;;;7.03;100.00
15670;BME280;18524;45.190;5.732;2024-01-16T17:52:07;98362.22;;;7.09;100.00
15670;BME280;18524;45.190;5.732;2024-01-16T17:56:59;98366.94;;;7.04;100.00
15670;BME280;18524;45.190;5.732;2024-01-16T18:01:50;98369.09;;;6.99;100.00
15670;BME280;18524;45.190;5.732;2024-01-16T18:06:40;98374.78;;;6.82;100.00
15670;BME280;18524;45.190;5.732;2024-01-16T18:11:50;98387.34;;;6.88;100.00
15670;BME280;18524;45.190;5.732;2024-01-16T18:16:42;98406.75;;;6.95;100.00
15670;BME280;18524;45.190;5.732;2024-01-16T18:21:32;98408.66;;;6.93;100.00
15670;BME280;18524;45.190;5.732;2024-01-16T18:26:24;98416.00;;;6.88;100.00
15670;BME280;18524;45.190;5.732;2024-01-16T18:31:15;98413.63;;;6.74;100.00
15670;BME280;18524;45.190;5.732;2024-01-16T18:36:06;98416.84;;;6.77;100.00
15670;BME280;18524;45.190;5.732;2024-01-16T18:40:57;98400.13;;;6.80;100.00
15670;BME280;18524;45.190;5.732;2024-01-16T18:45:48;98392.44;;;6.78;100.00
15670;BME280;18524;45.190;5.732;2024-01-16T18:50:41;98389.84;;;6.78;100.00
15670;BME280;18524;45.190;5.732;2024-01-16T18:55:32;98383.31;;;6.73;100.00
15670;BME280;18524;45.190;5.732;2024-01-16T19:00:22;98384.97;;;6.85;100.00
15670;BME280;18524;45.190;5.732;2024-01-16T19:05:13;98369.09;;;6.77;100.00
15670;BME280;18524;45.190;5.732;2024-01-16T19:10:04;98368.63;;;6.72;100.00
15670;BME280;18524;45.190;5.732;2024-01-16T19:14:55;98362.13;;;6.77;100.00
15670;BME280;18524;45.190;5.732;2024-01-16T19:19:47;98361.75;;;6.82;100.00
15670;BME280;18524;45.190;5.732;2024-01-16T19:24:37;98368.50;;;6.96;100.00
15670;BME280;18524;45.190;5.732;2024-01-16T19:29:27;98361.53;;;6.85;100.00
15670;BME280;18524;45.190;5.732;2024-01-16T19:34:18;98348.00;;;6.91;100.00
15670;BME280;18524;45.190;5.732;2024-01-16T19:39:09;98337.69;;;7.12;100.00
15670;BME280;18524;45.190;5.732;2024-01-16T19:44:04;98334.09;;;7.24;100.00
15670;BME280;18524;45.190;5.732;2024-01-16T19:48:55;98331.47;;;7.24;100.00
15670;BME280;18524;45.190;5.732;2024-01-16T19:53:46;98315.00;;;7.24;100.00
15670;BME280;18524;45.190;5.732;2024-01-16T19:58:36;98306.63;;;7.41;100.00
15670;BME280;18524;45.190;5.732;2024-01-16T20:03:28;98289.59;;;7.37;100.00
15670;BME280;18524;45.190;5.732;2024-01-16T20:08:20;98277.84;;;7.10;100.00
15670;BME280;18524;45.190;5.732;2024-01-16T20:13:12;98277.72;;;7.01;100.00
15670;BME280;18524;45.190;5.732;2024-01-16T20:18:03;98272.66;;;6.88;100.00
15670;BME280;18524;45.190;5.732;2024-01-16T20:22:53;98295.03;;;7.02;100.00
15670;BME280;18524;45.190;5.732;2024-01-16T20:27:45;98299.28;;;7.14;100.00
15670;BME280;18524;45.190;5.732;2024-01-16T20:32:39;98298.91;;;7.18;100.00
15670;BME280;18524;45.190;5.732;2024-01-16T20:37:30;98284.72;;;7.11;100.00
15670;BME280;18524;45.190;5.732;2024-01-16T20:42:21;98270.97;;;7.09;100.00
15670;BME280;18524;45.190;5.732;2024-01-16T20:47:11;98252.09;;;7.17;100.00
15670;BME280;18524;45.190;5.732;2024-01-16T20:52:02;98231.88;;;7.30;100.00
15670;BME280;18524;45.190;5.732;2024-01-16T20:56:52;98214.72;;;7.28;100.00
15670;BME280;18524;45.190;5.732;2024-01-16T21:01:43;98215.66;;;6.95;100.00
15670;BME280;18524;45.190;5.732;2024-01-16T21:06:34;98225.94;;;6.75;100.00
15670;BME280;18524;45.190;5.732;2024-01-16T21:11:24;98234.94;;;6.71;100.00
15670;BME280;18524;45.190;5.732;2024-01-16T21:16:15;98217.28;;;6.75;100.00
15670;BME280;18524;45.190;5.732;2024-01-16T21:21:06;98219.50;;;6.79;100.00
15670;BME280;18524;45.190;5.732;2024-01-16T21:25:56;98207.94;;;6.72;100.00
15670;BME280;18524;45.190;5.732;2024-01-16T21:30:48;98202.31;;;6.88;100.00
15670;BME280;18524;45.190;5.732;2024-01-16T21:35:41;98211.94;;;6.76;100.00
15670;BME280;18524;45.190;5.732;2024-01-16T21:40:31;98202.63;;;6.51;100.00
15670;BME280;18524;45.190;5.732;2024-01-16T21:45:24;98195.16;;;6.69;100.00
15670;BME280;18524;45.190;5.732;2024-01-16T21:50:14;98192.81;;;6.55;100.00
15670;BME280;18524;45.190;5.732;2024-01-16T21:55:06;98188.53;;;6.54;100.00
15670;BME280;18524;45.190;5.732;2024-01-16T21:59:57;98189.75;;;6.50;100.00
15670;BME280;18524;45.190;5.732;2024-01-16T22:04:47;98184.78;;;6.47;100.00
15670;BME280;18524;45.190;5.732;2024-01-16T22:09:38;98183.25;;;6.44;100.00
15670;BME280;18524;45.190;5.732;2024-01-16T22:14:28;98166.44;;;6.37;100.00
15670;BME280;18524;45.190;5.732;2024-01-16T22:19:21;98157.31;;;6.32;100.00
15670;BME280;18524;45.190;5.732;2024-01-16T22:24:12;98144.09;;;6.23;100.00
15670;BME280;18524;45.190;5.732;2024-01-16T22:29:03;98144.59;;;6.06;100.00
15670;BME280;18524;45.190;5.732;2024-01-16T22:33:54;98139.25;;;6.19;100.00
15670;BME280;18524;45.190;5.732;2024-01-16T22:38:44;98125.28;;;6.20;100.00
15670;BME280;18524;45.190;5.732;2024-01-16T22:43:37;98111.66;;;6.27;100.00
15670;BME280;18524;45.190;5.732;2024-01-16T22:48:28;98126.22;;;6.19;100.00
15670;BME280;18524;45.190;5.732;2024-01-16T22:53:19;98130.59;;;6.30;100.00
15670;BME280;18524;45.190;5.732;2024-01-16T22:58:12;98147.50;;;6.46;100.00
15670;BME280;18524;45.190;5.732;2024-01-16T23:03:02;98127.16;;;6.40;100.00
15670;BME280;18524;45.190;5.732;2024-01-16T23:07:53;98099.34;;;6.41;100.00
15670;BME280;18524;45.190;5.732;2024-01-16T23:12:43;98107.16;;;6.30;100.00
15670;BME280;18524;45.190;5.732;2024-01-16T23:17:33;98096.69;;;6.52;100.00
15670;BME280;18524;45.190;5.732;2024-01-16T23:22:24;98078.69;;;6.49;100.00
15670;BME280;18524;45.190;5.732;2024-01-16T23:27:15;98081.25;;;6.60;100.00
15670;BME280;18524;45.190;5.732;2024-01-16T23:32:05;98072.50;;;6.61;100.00
15670;BME280;18524;45.190;5.732;2024-01-16T23:36:57;98060.78;;;6.55;100.00
15670;BME280;18524;45.190;5.732;2024-01-16T23:41:47;98034.88;;;6.33;100.00
15670;BME280;18524;45.190;5.732;2024-01-16T23:46:38;98020.84;;;6.45;100.00
15670;BME280;18524;45.190;5.732;2024-01-16T23:51:28;97994.84;;;6.34;100.00
15670;BME280;18524;45.190;5.732;2024-01-16T23:56:21;97969.56;;;6.25;100.00
